Time;durP1;ratioP1;P1;durP2;ratioP2;P2;SDS_P1;SDS_P2;PMS_P1;PMS_P2;Temp;Humidity;BMP_temperature;BMP_pressure;BME280_temperature;BME280_humidity;BME280_pressure;Samples;Min_cycle;Max_cycle;Signal;HPM_P1;HPM_P2
2022/10/04 00:02:22;;;;;;;13.60;11.10;;;9.40;99.90;;;;;;5072457;28;20460;-55
2022/10/04 00:04:56;;;;;;;21.27;13.20;;;9.50;99.90;;;;;;5071193;28;20435;-55
2022/10/04 00:07:27;;;;;;;16.30;12.13;;;9.50;99.90;;;;;;5072621;28;20437;-55
2022/10/04 00:09:57;;;;;;;17.67;13.03;;;9.30;99.90;;;;;;5070250;28;20428;-55
2022/10/04 00:12:27;;;;;;;17.97;11.53;;;9.30;99.90;;;;;;5072639;28;20475;-55
2022/10/04 00:14:57;;;;;;;12.90;10.50;;;9.30;99.90;;;;;;5072615;28;20476;-54
2022/10/04 00:17:27;;;;;;;17.93;11.40;;;9.40;99.90;;;;;;5069566;28;20436;-55
2022/10/04 00:19:55;;;;;;;11.50;10.30;;;9.40;99.90;;;;;;5072173;28;20797;-55
2022/10/04 00:22:26;;;;;;;13.00;9.20;;;9.40;99.90;;;;;;5072493;28;20498;-55
2022/10/04 00:25:18;;;;;;;9.93;8.90;;;9.40;99.90;;;;;;5069410;28;20573;-55
2022/10/04 00:28:28;;;;;;;12.40;10.50;;;9.40;99.90;;;;;;5072062;28;20437;-55
2022/10/04 00:31:23;;;;;;;13.43;10.80;;;9.40;99.90;;;;;;5071479;28;20467;-55
2022/10/04 00:33:53;;;;;;;15.33;10.70;;;9.40;99.90;;;;;;5069892;28;20511;-55
2022/10/04 00:36:40;;;;;;;11.67;9.70;;;9.20;99.90;;;;;;5071915;28;20567;-55
2022/10/04 00:39:41;;;;;;;15.43;11.47;;;9.30;99.90;;;;;;5071745;28;20424;-55
2022/10/04 00:42:41;;;;;;;15.97;11.23;;;9.20;99.90;;;;;;5072077;28;20480;-55
2022/10/04 00:45:20;;;;;;;15.50;11.20;;;9.10;99.90;;;;;;5070225;28;20474;-55
2022/10/04 00:48:00;;;;;;;14.30;11.87;;;;;;;;;;5070110;28;20442;-55
2022/10/04 00:50:34;;;;;;;15.10;10.33;;;9.00;99.90;;;;;;5071688;28;20433;-55
2022/10/04 00:53:04;;;;;;;12.97;10.50;;;9.10;99.90;;;;;;5085341;28;20474;-55
2022/10/04 00:55:39;;;;;;;16.53;10.40;;;9.10;99.90;;;;;;5110704;28;20486;-55
2022/10/04 00:58:15;;;;;;;21.63;10.50;;;9.10;99.90;;;;;;5112023;28;20421;-55
2022/10/04 01:00:48;;;;;;;11.83;10.07;;;9.20;99.90;;;;;;5112248;28;20450;-55
2022/10/04 01:03:21;;;;;;;17.37;10.17;;;9.20;99.90;;;;;;5109813;28;20511;-55
2022/10/04 01:05:52;;;;;;;11.37;10.17;;;9.20;99.90;;;;;;5111854;28;20790;-55
2022/10/04 01:08:27;;;;;;;13.00;10.10;;;9.20;99.90;;;;;;5111940;28;20950;-55
2022/10/04 01:10:58;;;;;;;18.23;12.33;;;9.20;99.90;;;;;;5110405;28;20524;-55
2022/10/04 01:13:30;;;;;;;15.90;11.27;;;9.00;99.90;;;;;;5111656;28;20454;-55
2022/10/04 01:16:03;;;;;;;24.57;10.27;;;8.90;99.90;;;;;;5111710;28;20558;-55
2022/10/04 01:18:33;;;;;;;13.90;11.53;;;8.90;99.90;;;;;;5109412;28;20465;-55
2022/10/04 01:21:04;;;;;;;13.10;11.00;;;8.90;99.90;;;;;;5111724;28;20475;-55
2022/10/04 01:23:38;;;;;;;16.40;11.43;;;8.80;99.90;;;;;;5112063;28;20415;-55
2022/10/04 01:26:06;;;;;;;15.93;10.73;;;8.80;99.90;;;;;;5110002;28;20423;-55
2022/10/04 01:28:35;;;;;;;14.53;10.60;;;8.80;99.90;;;;;;5111682;28;20450;-55
2022/10/04 01:31:03;;;;;;;13.43;11.90;;;8.70;99.90;;;;;;5116576;28;20925;-55
2022/10/04 01:33:30;;;;;;;11.90;10.57;;;8.70;99.90;;;;;;5113865;27;20446;-55
2022/10/04 01:35:57;;;;;;;17.10;10.93;;;8.90;99.90;;;;;;5115524;28;20474;-55
2022/10/04 01:38:24;;;;;;;12.73;9.30;;;8.90;99.90;;;;;;5115296;28;20489;-55
2022/10/04 01:40:58;;;;;;;19.93;10.87;;;8.90;99.90;;;;;;5112981;27;20549;-54
2022/10/04 01:43:35;;;;;;;11.80;10.03;;;8.90;99.90;;;;;;5115812;28;20469;-55
2022/10/04 01:46:07;;;;;;;11.80;10.70;;;9.00;99.90;;;;;;5114842;28;20433;-55
2022/10/04 01:48:38;;;;;;;13.30;10.60;;;9.00;99.90;;;;;;5115796;27;20483;-55
2022/10/04 01:51:11;;;;;;;11.97;10.77;;;9.10;99.90;;;;;;5115828;28;20526;-55
2022/10/04 01:53:44;;;;;;;12.83;11.60;;;9.00;99.90;;;;;;5113196;28;20569;-55
2022/10/04 01:56:16;;;;;;;11.70;10.20;;;9.00;99.90;;;;;;5115827;28;20552;-55
2022/10/04 01:58:47;;;;;;;11.03;9.77;;;9.00;99.90;;;;;;5115472;28;20426;-55
2022/10/04 02:01:18;;;;;;;16.80;10.67;;;9.10;99.90;;;;;;5113701;28;20845;-55
2022/10/04 02:03:52;;;;;;;11.63;10.43;;;9.00;99.90;;;;;;5115856;28;20461;-55
2022/10/04 02:06:21;;;;;;;13.07;10.17;;;8.80;99.90;;;;;;5115924;28;20426;-55
2022/10/04 02:08:56;;;;;;;10.83;9.73;;;8.80;99.90;;;;;;5113129;28;20454;-55
2022/10/04 02:11:29;;;;;;;15.87;9.90;;;8.90;99.90;;;;;;5115376;28;20429;-55
2022/10/04 02:13:57;;;;;;;12.73;10.90;;;8.90;99.90;;;;;;5115124;28;20808;-55
2022/10/04 02:16:25;;;;;;;13.20;9.60;;;8.80;99.90;;;;;;5112976;28;20489;-55
2022/10/04 02:18:54;;;;;;;14.13;10.13;;;8.70;99.90;;;;;;5114990;28;20975;-55
2022/10/04 02:21:22;;;;;;;17.47;11.33;;;8.80;99.90;;;;;;5114981;28;20447;-55
2022/10/04 02:23:52;;;;;;;11.60;9.60;;;8.80;99.90;;;;;;5112328;28;20533;-55
2022/10/04 02:26:20;;;;;;;12.23;10.73;;;8.60;99.90;;;;;;5115130;28;20438;-55
2022/10/04 02:28:49;;;;;;;12.90;10.03;;;8.50;99.90;;;;;;5115060;28;21032;-56
2022/10/04 02:34:05;;;;;;;17.90;10.90;;;8.40;99.90;;;;;;5114801;28;20405;-55
2022/10/04 02:36:34;;;;;;;12.23;11.03;;;8.50;99.90;;;;;;5114331;28;20784;-55
2022/10/04 02:39:04;;;;;;;12.77;10.77;;;8.50;99.90;;;;;;5112126;28;20530;-56
2022/10/04 02:41:34;;;;;;;11.97;10.77;;;8.60;99.90;;;;;;5113578;28;20478;-55
2022/10/04 02:44:11;;;;;;;15.90;11.90;;;8.70;99.90;;;;;;5114210;28;20483;-56
2022/10/04 02:46:44;;;;;;;11.83;9.87;;;8.70;99.90;;;;;;5112784;28;20434;-56
2022/10/04 02:49:17;;;;;;;13.03;11.17;;;8.50;99.90;;;;;;5114885;28;20522;-55
2022/10/04 02:51:50;;;;;;;11.60;10.20;;;8.40;99.90;;;;;;5114061;28;20988;-56
2022/10/04 02:54:28;;;;;;;13.30;9.40;;;8.40;99.90;;;;;;5110961;28;20953;-56
2022/10/04 02:56:56;;;;;;;11.17;8.90;;;8.40;99.90;;;;;;5114452;28;20458;-55
2022/10/04 02:59:26;;;;;;;15.23;10.37;;;8.50;99.90;;;;;;5113947;28;20446;-55
2022/10/04 03:01:54;;;;;;;13.10;10.30;;;8.50;99.90;;;;;;5112525;28;20469;-55
2022/10/04 03:04:25;;;;;;;14.03;10.00;;;8.50;99.90;;;;;;5114067;28;20443;-55
2022/10/04 03:06:53;;;;;;;19.13;11.90;;;8.60;99.90;;;;;;5114560;28;20427;-55
2022/10/04 03:09:23;;;;;;;12.53;11.10;;;8.60;99.90;;;;;;5111989;28;20799;-55
2022/10/04 03:11:51;;;;;;;15.03;9.80;;;8.60;99.90;;;;;;5113776;28;20462;-55
2022/10/04 03:14:21;;;;;;;12.70;10.43;;;8.40;99.90;;;;;;5114083;28;20865;-56
2022/10/04 03:16:52;;;;;;;13.07;11.07;;;8.40;99.90;;;;;;5111826;28;20484;-55
2022/10/04 03:19:21;;;;;;;14.10;10.57;;;8.40;99.90;;;;;;5113948;28;20525;-55
2022/10/04 03:21:51;;;;;;;10.80;9.83;;;8.40;99.90;;;;;;5113659;28;20473;-55
2022/10/04 03:24:23;;;;;;;15.53;9.50;;;8.50;99.90;;;;;;5111832;28;20538;-55
2022/10/04 03:26:53;;;;;;;11.30;9.87;;;8.30;99.90;;;;;;5113631;28;20423;-55
2022/10/04 03:29:24;;;;;;;14.10;10.63;;;8.30;99.90;;;;;;5113793;28;20446;-55
2022/10/04 03:31:56;;;;;;;14.87;10.60;;;8.40;99.90;;;;;;5111283;28;20569;-55
2022/10/04 03:34:25;;;;;;;15.43;10.77;;;8.50;99.90;;;;;;5113435;28;20427;-55
2022/10/04 03:36:55;;;;;;;11.07;9.97;;;8.50;99.90;;;;;;5114087;28;20504;-55
2022/10/04 03:39:28;;;;;;;11.83;10.07;;;8.30;99.90;;;;;;5110567;28;20451;-55
2022/10/04 03:41:57;;;;;;;13.93;10.03;;;8.40;99.90;;;;;;5113525;28;20465;-55
2022/10/04 03:44:25;;;;;;;10.63;9.70;;;8.40;99.90;;;;;;5113294;28;20485;-61
2022/10/04 03:46:54;;;;;;;12.40;9.03;;;8.50;99.90;;;;;;5112654;28;20438;-55
2022/10/04 03:49:32;;;;;;;11.33;9.50;;;8.50;99.90;;;;;;5112125;28;20519;-55
2022/10/04 03:52:01;;;;;;;13.23;9.53;;;8.50;99.90;;;;;;5110538;28;20466;-55
2022/10/04 03:54:29;;;;;;;11.37;8.87;;;8.60;99.90;;;;;;5112568;28;20474;-55
2022/10/04 03:56:58;;;;;;;12.00;10.30;;;8.50;99.90;;;;;;5113061;28;20488;-55
2022/10/04 03:59:27;;;;;;;10.30;9.40;;;8.40;99.90;;;;;;5110671;28;20447;-55
2022/10/04 04:02:05;;;;;;;12.50;9.70;;;8.30;99.90;;;;;;5112726;28;21076;-55
2022/10/04 04:04:42;;;;;;;13.43;9.97;;;8.30;99.90;;;;;;5113106;28;20427;-56
2022/10/04 04:07:13;;;;;;;10.37;9.23;;;8.40;99.90;;;;;;5110805;28;20430;-55
2022/10/04 04:09:45;;;;;;;10.27;9.17;;;8.50;99.90;;;;;;5112860;28;20429;-56
2022/10/04 04:12:18;;;;;;;12.70;9.33;;;8.50;99.90;;;;;;5112916;28;20969;-56
2022/10/04 04:14:50;;;;;;;10.70;9.67;;;8.60;99.90;;;;;;5110794;28;20644;-55
2022/10/04 04:17:36;;;;;;;11.93;10.70;;;8.50;99.90;;;;;;5112971;28;20474;-56
2022/10/04 04:20:07;;;;;;;13.30;10.40;;;8.60;99.90;;;;;;5112278;28;20437;-56
2022/10/04 04:22:36;;;;;;;16.93;11.03;;;8.60;99.90;;;;;;5110632;28;20462;-55
2022/10/04 04:25:11;;;;;;;10.30;9.30;;;8.50;99.90;;;;;;5112799;28;20478;-55
2022/10/04 04:27:41;;;;;;;10.33;9.00;;;8.50;99.90;;;;;;5112365;28;21271;-55
2022/10/04 04:30:15;;;;;;;12.37;9.27;;;8.40;99.90;;;;;;5110299;28;20464;-55
2022/10/04 04:32:48;;;;;;;13.43;9.63;;;8.40;99.90;;;;;;5112541;28;20802;-55
2022/10/04 04:35:23;;;;;;;10.67;9.67;;;8.40;99.90;;;;;;5112365;28;20427;-56
2022/10/04 04:38:04;;;;;;;11.77;9.60;;;8.40;99.90;;;;;;5110093;28;20466;-55
2022/10/04 04:40:33;;;;;;;13.23;11.20;;;8.40;99.90;;;;;;5111506;28;20438;-55
2022/10/04 04:43:02;;;;;;;11.10;9.10;;;8.50;99.90;;;;;;5112624;28;20489;-55
2022/10/04 04:45:32;;;;;;;9.37;8.47;;;8.50;99.90;;;;;;5110791;28;20557;-55
2022/10/04 04:48:03;;;;;;;12.30;9.53;;;8.50;99.90;;;;;;5112421;28;20438;-55
2022/10/04 04:50:34;;;;;;;17.47;9.93;;;8.40;99.90;;;;;;5112660;28;20431;-55
2022/10/04 04:53:07;;;;;;;11.37;9.80;;;8.40;99.90;;;;;;5109305;28;20973;-55
2022/10/04 04:55:37;;;;;;;10.13;9.13;;;8.40;99.90;;;;;;5111562;28;20447;-55
2022/10/04 04:58:05;;;;;;;15.50;9.80;;;8.40;99.90;;;;;;5110939;28;20479;-55
2022/10/04 05:00:37;;;;;;;10.23;9.03;;;8.40;99.90;;;;;;5109477;28;20561;-56
2022/10/04 05:03:08;;;;;;;12.30;9.67;;;8.30;99.90;;;;;;5111401;28;20516;-55
2022/10/04 05:05:36;;;;;;;10.23;8.77;;;8.40;99.90;;;;;;5110036;28;20632;-56
2022/10/04 05:08:15;;;;;;;11.43;10.20;;;8.40;99.90;;;;;;5109519;28;20443;-55
2022/10/04 05:10:46;;;;;;;15.43;9.30;;;8.30;99.90;;;;;;5111892;28;20456;-55
2022/10/04 05:13:15;;;;;;;10.47;9.40;;;8.30;99.90;;;;;;5111205;28;20808;-54
2022/10/04 05:15:43;;;;;;;12.23;10.40;;;8.40;99.90;;;;;;5110978;28;20533;-55
2022/10/04 05:18:30;;;;;;;14.90;9.57;;;8.40;99.90;;;;;;5111901;28;20474;-55
2022/10/04 05:21:03;;;;;;;9.93;8.90;;;8.40;99.90;;;;;;5109716;28;21293;-55
2022/10/04 05:23:30;;;;;;;10.87;9.70;;;8.40;99.90;;;;;;5111697;28;20427;-56
2022/10/04 05:26:01;;;;;;;10.77;9.20;;;8.30;99.90;;;;;;5111393;28;21018;-57
2022/10/04 05:28:28;;;;;;;15.43;10.00;;;8.30;99.90;;;;;;5109168;28;20463;-54
2022/10/04 05:31:19;;;;;;;10.53;9.43;;;8.30;99.90;;;;;;5111243;28;20462;-54
2022/10/04 05:33:51;;;;;;;11.07;9.60;;;8.20;99.90;;;;;;5111561;28;20529;-55
2022/10/04 05:36:42;;;;;;;10.10;9.07;;;8.30;99.90;;;;;;5109436;28;20433;-55
2022/10/04 05:39:18;;;;;;;12.13;9.13;;;8.40;99.90;;;;;;5099380;28;20540;-55
2022/10/04 05:41:53;;;;;;;11.40;9.80;;;8.40;99.90;;;;;;5110428;28;20458;-56
2022/10/04 05:44:26;;;;;;;14.03;10.77;;;8.50;99.90;;;;;;5109340;28;20889;-55
2022/10/04 05:46:55;;;;;;;11.33;10.13;;;8.50;99.90;;;;;;5111471;28;20506;-55
2022/10/04 05:49:28;;;;;;;10.17;9.17;;;8.40;99.90;;;;;;5110748;28;20441;-55
2022/10/04 05:51:59;;;;;;;10.37;9.37;;;8.30;99.90;;;;;;5109434;28;20793;-55
2022/10/04 05:54:30;;;;;;;10.63;9.47;;;8.30;99.90;;;;;;5110859;28;20469;-55
2022/10/04 05:57:28;;;;;;;11.80;9.83;;;8.40;99.90;;;;;;5110855;28;20549;-55
2022/10/04 06:00:07;;;;;;;13.73;8.90;;;8.40;99.90;;;;;;5108790;28;20535;-55
2022/10/04 06:02:55;;;;;;;14.73;9.70;;;8.50;99.90;;;;;;5110856;28;20458;-56
2022/10/04 06:05:28;;;;;;;16.30;10.03;;;8.60;99.90;;;;;;5108969;28;20453;-55
2022/10/04 06:08:07;;;;;;;11.47;9.47;;;8.70;99.90;;;;;;5111671;28;20829;-55
2022/10/04 06:10:52;;;;;;;9.53;8.63;;;8.80;99.90;;;;;;5111147;28;20517;-55
2022/10/04 06:13:37;;;;;;;9.83;8.87;;;8.90;99.90;;;;;;5109276;28;20964;-55
2022/10/04 06:16:18;;;;;;;10.53;9.50;;;8.90;99.90;;;;;;5113425;28;20475;-55
2022/10/04 06:19:27;;;;;;;10.27;9.23;;;9.00;99.90;;;;;;5115254;28;20886;-55
2022/10/04 06:22:13;;;;;;;15.83;10.17;;;8.90;99.90;;;;;;5096394;28;20554;-55
2022/10/04 06:24:43;;;;;;;10.70;9.40;;;8.90;99.90;;;;;;5114399;28;20454;-55
2022/10/04 06:27:16;;;;;;;10.77;9.63;;;9.00;99.90;;;;;;5115176;28;20450;-55
2022/10/04 06:29:47;;;;;;;13.63;10.17;;;9.00;99.90;;;;;;5114156;28;20519;-55
2022/10/04 06:32:49;;;;;;;11.70;9.17;;;9.00;99.90;;;;;;5114225;28;20965;-55
2022/10/04 06:35:31;;;;;;;9.70;8.70;;;9.10;99.90;;;;;;5110389;28;20485;-55
2022/10/04 06:38:39;;;;;;;11.80;7.73;;;9.10;99.90;;;;;;5113152;28;21056;-55
2022/10/04 06:41:42;;;;;;;9.67;7.97;;;9.30;99.90;;;;;;5113641;28;20479;-56
2022/10/04 06:44:30;;;;;;;9.87;7.70;;;9.40;99.90;;;;;;5112095;28;20426;-56
2022/10/04 06:47:14;;;;;;;12.93;8.53;;;9.60;99.90;;;;;;5114429;28;20425;-56
2022/10/04 06:49:48;;;;;;;10.10;7.70;;;9.70;99.90;;;;;;5112275;28;20427;-55
2022/10/04 06:52:43;;;;;;;16.30;7.03;;;9.60;99.90;;;;;;5114134;28;20459;-55
2022/10/04 06:56:01;;;;;;;15.67;8.43;;;9.80;99.90;;;;;;5067123;28;20842;-55
2022/10/04 06:58:53;;;;;;;15.70;8.73;;;9.80;99.90;;;;;;5071159;28;20506;-55
2022/10/04 07:01:28;;;;;;;8.40;7.40;;;9.90;99.90;;;;;;5073952;28;20452;-56
2022/10/04 07:04:02;;;;;;;10.37;8.00;;;9.90;99.90;;;;;;5073148;28;20409;-55
2022/10/04 07:06:34;;;;;;;9.80;7.60;;;10.00;99.90;;;;;;5071025;28;20903;-56
2022/10/04 07:09:06;;;;;;;11.60;8.20;;;10.00;99.90;;;;;;5073324;28;20451;-55
2022/10/04 07:11:44;;;;;;;9.27;7.47;;;10.10;99.90;;;;;;5073153;28;20510;-55
2022/10/04 07:14:16;;;;;;;13.70;8.80;;;10.10;99.90;;;;;;5073349;28;20445;-55
2022/10/04 07:16:48;;;;;;;9.03;7.20;;;10.20;99.90;;;;;;5073393;28;20711;-55
2022/10/04 07:19:38;;;;;;;8.03;7.23;;;10.40;99.90;;;;;;5070754;28;20425;-56
2022/10/04 07:22:16;;;;;;;8.90;8.00;;;10.50;99.90;;;;;;5072335;28;20468;-56
2022/10/04 07:24:56;;;;;;;9.33;7.90;;;10.60;99.90;;;;;;5072941;28;20429;-55
2022/10/04 07:27:31;;;;;;;9.53;7.93;;;10.70;99.90;;;;;;5070247;28;20428;-55
2022/10/04 07:30:01;;;;;;;9.83;8.37;;;10.80;99.90;;;;;;5072732;28;20432;-55
2022/10/04 07:32:30;;;;;;;14.10;8.57;;;10.70;99.90;;;;;;5072172;28;20461;-55
2022/10/04 07:35:02;;;;;;;14.00;9.23;;;10.70;99.90;;;;;;5070323;28;20459;-55
2022/10/04 07:37:33;;;;;;;10.70;7.90;;;10.80;99.90;;;;;;5072894;28;20938;-56
2022/10/04 07:40:06;;;;;;;10.60;8.97;;;10.70;99.90;;;;;;5072251;28;20485;-55
2022/10/04 07:42:44;;;;;;;10.03;8.40;;;10.60;99.90;;;;;;5070404;28;20478;-55
2022/10/04 07:45:17;;;;;;;10.87;9.10;;;10.50;99.90;;;;;;5072791;28;20524;-55
2022/10/04 07:47:45;;;;;;;12.23;8.90;;;10.50;99.90;;;;;;5072101;28;20507;-56
2022/10/04 07:50:35;;;;;;;9.27;8.33;;;10.50;99.90;;;;;;5070366;28;20793;-56
2022/10/04 07:53:09;;;;;;;14.30;10.90;;;10.50;99.90;;;;;;5084662;28;20474;-56
2022/10/04 07:55:50;;;;;;;9.93;8.93;;;10.60;99.90;;;;;;5112978;28;20419;-55
2022/10/04 07:58:31;;;;;;;11.00;9.20;;;10.60;99.90;;;;;;5111215;28;20488;-55
2022/10/04 08:01:01;;;;;;;11.90;9.80;;;10.50;99.90;;;;;;5112904;28;20820;-56
2022/10/04 08:03:48;;;;;;;12.03;9.37;;;10.60;99.90;;;;;;5110994;28;20527;-56
2022/10/04 08:06:23;;;;;;;10.40;9.40;;;10.70;99.90;;;;;;5112718;28;20816;-56
2022/10/04 08:09:08;;;;;;;11.47;7.83;;;10.60;99.90;;;;;;5112643;28;20437;-55
2022/10/04 08:11:44;;;;;;;10.37;9.20;;;10.70;99.90;;;;;;5111090;28;20472;-56
2022/10/04 08:14:27;;;;;;;9.50;8.60;;;10.90;99.90;;;;;;5113591;28;20462;-56
2022/10/04 08:17:07;;;;;;;12.23;7.93;;;11.00;99.90;;;;;;5112690;28;20431;-55
2022/10/04 08:19:46;;;;;;;8.63;7.80;;;11.20;99.90;;;;;;5111293;28;20762;-56
2022/10/04 08:22:25;;;;;;;10.53;7.90;;;11.20;99.90;;;;;;5113368;28;20473;-55
2022/10/04 08:25:03;;;;;;;11.77;9.43;;;11.30;99.90;;;;;;5113170;28;20423;-55
2022/10/04 08:29:41;;;;;;;9.43;7.97;;;11.40;99.90;;;;;;5111292;28;20426;-56
2022/10/04 08:30:55;;;;;;;9.83;8.80;;;11.20;99.90;;;;;;5112064;28;21074;-55
2022/10/04 08:33:36;;;;;;;9.83;8.77;;;11.40;99.90;;;;;;5109993;28;20462;-56
2022/10/04 08:36:18;;;;;;;9.00;6.90;;;11.60;99.90;;;;;;5112395;28;20901;-56
2022/10/04 08:38:55;;;;;;;9.27;8.37;;;11.80;99.90;;;;;;5109809;28;20536;-55
2022/10/04 08:42:10;;;;;;;10.30;7.83;;;11.90;99.90;;;;;;5109743;28;20426;-56
2022/10/04 08:45:13;;;;;;;9.27;7.03;;;12.10;99.90;;;;;;5112265;28;20538;-56
2022/10/04 08:48:25;;;;;;;14.43;8.20;;;12.40;99.90;;;;;;5098408;28;20438;-55
2022/10/04 08:51:40;;;;;;;8.80;7.80;;;12.50;99.90;;;;;;5111666;28;20956;-56
2022/10/04 08:54:44;;;;;;;10.23;7.97;;;12.30;99.90;;;;;;5111955;28;20557;-56
2022/10/04 08:57:37;;;;;;;7.43;6.73;;;12.60;99.90;;;;;;5109631;28;20431;-56
2022/10/04 09:00:20;;;;;;;10.87;8.93;;;12.70;99.90;;;;;;5108465;28;20458;-55
2022/10/04 09:03:12;;;;;;;10.00;7.70;;;12.70;99.90;;;;;;5109638;28;20462;-55
2022/10/04 09:05:56;;;;;;;8.33;7.40;;;12.70;99.90;;;;;;5112260;28;20427;-56
2022/10/04 09:09:02;;;;;;;9.80;7.03;;;12.60;99.90;;;;;;5110387;28;20940;-56
2022/10/04 09:11:58;;;;;;;7.63;6.93;;;12.60;99.90;;;;;;5078802;28;20553;-56
2022/10/04 09:15:00;;;;;;;8.60;7.37;;;12.60;99.90;;;;;;5106206;28;20486;-56
2022/10/04 09:17:39;;;;;;;8.93;8.03;;;12.60;99.90;;;;;;5111320;28;20492;-56
2022/10/04 09:20:21;;;;;;;8.47;7.00;;;12.70;99.90;;;;;;5112895;28;20901;-56
2022/10/04 09:22:56;;;;;;;8.77;7.73;;;12.90;99.90;;;;;;5112464;28;20477;-56
2022/10/04 09:25:49;;;;;;;7.63;6.73;;;13.00;99.90;;;;;;5109958;28;20518;-56
2022/10/04 09:28:47;;;;;;;10.27;7.17;;;13.20;99.90;;;;;;5112511;28;20415;-56
2022/10/04 09:31:49;;;;;;;7.93;6.80;;;13.40;99.90;;;;;;5112174;28;20447;-56
2022/10/04 09:34:33;;;;;;;6.50;5.90;;;13.60;99.90;;;;;;5075987;28;20487;-56
2022/10/04 09:37:22;;;;;;;10.50;6.00;;;14.00;99.90;;;;;;5112411;28;20430;-56
2022/10/04 09:40:33;;;;;;;11.33;6.43;;;14.30;99.90;;;;;;5110648;28;20431;-56
2022/10/04 09:44:01;;;;;;;6.80;5.23;;;14.80;99.90;;;;;;5112551;28;21022;-56
2022/10/04 09:47:00;;;;;;;6.77;5.70;;;15.80;99.90;;;;;;5028451;28;20452;-56
2022/10/04 09:49:41;;;;;;;7.07;5.70;;;;;;;;;;5028258;28;20438;-56
2022/10/04 09:52:23;;;;;;;12.77;6.57;;;16.90;99.90;;;;;;5112090;28;20469;-57
2022/10/04 09:55:22;;;;;;;8.40;6.13;;;17.30;99.90;;;;;;5113490;28;21004;-57
2022/10/04 09:58:04;;;;;;;6.37;4.90;;;17.80;99.90;;;;;;5114772;28;20474;-56
2022/10/04 10:00:35;;;;;;;10.03;5.00;;;;;;;;;;5113283;28;20454;-57
2022/10/04 10:03:30;;;;;;;8.47;4.37;;;17.90;99.90;;;;;;5113819;28;20539;-56
2022/10/04 10:06:13;;;;;;;5.37;3.80;;;18.10;99.90;;;;;;5115355;28;20875;-57
2022/10/04 10:08:54;;;;;;;6.00;3.70;;;18.50;99.90;;;;;;5114624;28;20433;-56
2022/10/04 10:14:48;;;;;;;4.93;3.40;;;18.20;99.90;;;;;;5114676;28;20402;-56
2022/10/04 10:17:24;;;;;;;5.03;3.40;;;18.20;99.90;;;;;;5084761;28;20484;-56
2022/10/04 10:20:17;;;;;;;4.77;3.67;;;18.10;99.90;;;;;;5115052;28;20549;-56
2022/10/04 10:23:41;;;;;;;4.10;3.70;;;18.10;99.90;;;;;;5078629;28;20555;-57
2022/10/04 10:26:36;;;;;;;4.23;3.43;;;18.30;99.90;;;;;;4995942;28;20497;-56
2022/10/04 10:29:30;;;;;;;4.90;3.40;;;18.60;99.90;;;;;;5114745;28;20449;-58
2022/10/04 10:32:14;;;;;;;5.30;3.90;;;19.50;99.90;;;;;;5113363;28;20964;-57
2022/10/04 10:34:59;;;;;;;5.53;3.33;;;;;;;;;;5114093;28;20434;-57
2022/10/04 10:37:35;;;;;;;12.27;4.47;;;20.10;99.90;;;;;;5114280;28;20447;-57
2022/10/04 10:40:31;;;;;;;8.00;3.40;;;20.10;99.90;;;;;;5112321;28;20434;-57
2022/10/04 10:43:25;;;;;;;5.40;3.70;;;20.00;99.90;;;;;;5113487;28;20774;-57
2022/10/04 10:46:05;;;;;;;5.40;3.10;;;20.10;99.90;;;;;;5110751;28;20460;-57
2022/10/04 10:49:03;;;;;;;5.80;3.53;;;20.70;99.90;;;;;;5111873;28;20423;-57
2022/10/04 10:51:59;;;;;;;4.17;3.77;;;20.20;99.90;;;;;;5113811;28;20467;-57
2022/10/04 10:55:17;;;;;;;3.50;3.20;;;20.40;99.90;;;;;;5108232;28;20495;-57
2022/10/04 10:58:12;;;;;;;4.23;3.13;;;20.70;99.90;;;;;;5113379;28;20492;-56
2022/10/04 11:00:52;;;;;;;4.00;3.63;;;20.70;99.90;;;;;;5114200;28;20774;-57
2022/10/04 11:03:24;;;;;;;5.53;3.80;;;;;;;;;;5111067;28;20861;-56
2022/10/04 11:06:21;;;;;;;4.37;3.67;;;20.60;99.90;;;;;;5113496;28;20894;-56
2022/10/04 11:09:26;;;;;;;3.87;3.47;;;20.00;99.90;;;;;;5111691;28;20831;-57
2022/10/04 11:12:38;;;;;;;3.90;3.20;;;20.20;99.90;;;;;;5113407;28;20462;-57
2022/10/04 11:15:24;;;;;;;4.53;3.37;;;;;;;;;;5113487;28;20472;-57
2022/10/04 11:18:36;;;;;;;7.70;3.63;;;21.20;99.90;;;;;;5111294;28;20445;-57
2022/10/04 11:21:45;;;;;;;9.33;4.03;;;21.90;99.90;;;;;;5031328;28;20430;-57
2022/10/04 11:24:47;;;;;;;5.97;3.70;;;22.40;99.90;;;;;;5112203;28;20427;-57
2022/10/04 11:27:27;;;;;;;7.00;3.43;;;21.80;99.70;;;;;;5114280;28;20423;-57
2022/10/04 11:30:13;;;;;;;4.60;3.87;;;21.80;99.90;;;;;;5114224;28;20450;-57
2022/10/04 11:33:10;;;;;;;4.13;3.30;;;;;;;;;;5111195;28;20474;-57
2022/10/04 11:36:20;;;;;;;3.37;3.10;;;22.10;99.50;;;;;;5113459;28;20789;-57
2022/10/04 11:38:56;;;;;;;6.47;3.97;;;21.20;99.90;;;;;;5111767;28;20837;-58
2022/10/04 11:41:34;;;;;;;7.53;4.10;;;21.60;99.90;;;;;;5113767;28;20993;-58
2022/10/04 11:44:24;;;;;;;5.67;3.17;;;22.20;99.90;;;;;;5114471;28;20430;-58
2022/10/04 11:46:59;;;;;;;7.63;5.07;;;21.80;99.90;;;;;;5111532;28;20963;-58
2022/10/04 11:49:43;;;;;;;4.07;3.63;;;22.30;99.90;;;;;;5113665;28;20487;-58
2022/10/04 11:52:52;;;;;;;5.57;3.20;;;22.50;99.70;;;;;;5112862;28;20463;-58
2022/10/04 11:55:53;;;;;;;4.40;3.27;;;21.60;99.50;;;;;;5070601;28;20490;-58
2022/10/04 11:58:32;;;;;;;5.33;3.40;;;21.70;99.90;;;;;;5113591;28;20474;-57
2022/10/04 12:01:29;;;;;;;4.53;3.40;;;22.70;99.90;;;;;;5110442;28;20782;-58
2022/10/04 12:04:14;;;;;;;6.27;4.17;;;22.40;98.50;;;;;;5112928;28;20427;-58
2022/10/04 12:06:56;;;;;;;3.60;3.13;;;22.10;99.60;;;;;;5112947;28;20455;-58
2022/10/04 12:09:33;;;;;;;4.70;3.43;;;22.40;99.90;;;;;;5110853;28;20423;-58
2022/10/04 12:12:36;;;;;;;4.30;2.87;;;22.70;99.90;;;;;;5113180;28;20466;-60
2022/10/04 12:15:33;;;;;;;4.43;4.00;;;22.90;99.30;;;;;;5111713;28;20437;-58
2022/10/04 12:18:31;;;;;;;6.00;3.10;;;22.70;98.80;;;;;;5078483;27;20805;-58
2022/10/04 12:21:33;;;;;;;8.00;4.23;;;22.00;98.90;;;;;;5113033;28;20909;-58
2022/10/04 12:24:46;;;;;;;3.90;3.50;;;22.10;99.80;;;;;;5094243;28;20495;-58
2022/10/04 12:27:37;;;;;;;6.30;3.97;;;22.10;99.90;;;;;;5028019;28;20495;-58
2022/10/04 12:30:29;;;;;;;4.23;3.93;;;22.30;99.90;;;;;;5110572;28;20469;-58
2022/10/04 12:33:09;;;;;;;4.53;4.07;;;22.20;99.90;;;;;;5112534;28;20562;-55
2022/10/04 12:35:49;;;;;;;8.13;3.47;;;22.20;99.90;;;;;;5112155;28;20509;-57
2022/10/04 12:38:39;;;;;;;5.40;3.60;;;21.60;99.90;;;;;;5110586;28;20430;-58
2022/10/04 12:41:17;;;;;;;6.60;3.73;;;22.00;99.90;;;;;;5112094;28;20430;-58
2022/10/04 12:43:54;;;;;;;4.50;3.70;;;22.10;99.80;;;;;;5111938;28;20758;-58
2022/10/04 12:46:37;;;;;;;5.40;3.50;;;22.20;99.90;;;;;;5110390;28;20987;-57
2022/10/04 12:49:15;;;;;;;4.63;3.10;;;22.90;98.60;;;;;;5112723;28;20429;-58
2022/10/04 12:51:57;;;;;;;7.50;3.80;;;23.00;99.90;;;;;;5112823;28;20458;-58
2022/10/04 12:54:38;;;;;;;6.10;3.77;;;22.90;99.90;;;;;;5110791;28;20485;-58
2022/10/04 12:57:21;;;;;;;4.33;3.47;;;23.60;98.90;;;;;;5113123;28;20458;-58
2022/10/04 12:59:59;;;;;;;3.67;3.30;;;23.70;98.30;;;;;;5111078;28;21081;-55
2022/10/04 13:02:46;;;;;;;4.63;3.83;;;23.80;99.20;;;;;;5112682;28;20470;-56
2022/10/04 13:05:21;;;;;;;4.63;4.17;;;23.40;99.20;;;;;;5113044;28;20426;-58
2022/10/04 13:08:06;;;;;;;4.67;3.87;;;23.40;99.90;;;;;;5111373;28;20800;-61
2022/10/04 13:10:43;;;;;;;4.13;3.73;;;;;;;;;;5112385;28;20426;-56
2022/10/04 13:13:43;;;;;;;6.30;4.27;;;23.30;99.40;;;;;;5112963;28;20475;-58
2022/10/04 13:16:19;;;;;;;4.73;4.23;;;22.90;99.90;;;;;;5110813;28;20810;-57
2022/10/04 13:18:57;;;;;;;8.20;4.33;;;22.90;99.50;;;;;;5112519;28;20462;-57
2022/10/04 13:21:59;;;;;;;6.70;3.60;;;22.90;99.00;;;;;;5113038;28;20458;-57
2022/10/04 13:24:53;;;;;;;5.60;3.70;;;22.70;98.60;;;;;;5112920;28;20453;-57
2022/10/04 13:27:29;;;;;;;6.07;4.27;;;22.60;98.60;;;;;;5117168;28;20427;-57
2022/10/04 13:30:05;;;;;;;4.33;3.70;;;23.00;99.10;;;;;;5115361;28;20458;-56
2022/10/04 13:32:41;;;;;;;5.50;3.23;;;23.20;99.90;;;;;;5116655;28;20473;-58
2022/10/04 13:35:18;;;;;;;6.30;3.93;;;22.90;99.00;;;;;;5116914;28;20466;-58
2022/10/04 13:37:59;;;;;;;4.20;3.07;;;22.20;98.30;;;;;;5113474;28;20889;-58
2022/10/04 13:40:46;;;;;;;7.00;3.67;;;22.60;99.70;;;;;;5116346;28;20470;-58
2022/10/04 13:43:36;;;;;;;4.47;3.33;;;22.50;99.20;;;;;;5113230;28;20998;-58
2022/10/04 13:46:20;;;;;;;5.10;2.80;;;22.40;98.70;;;;;;5113886;28;20506;-58
2022/10/04 13:49:06;;;;;;;5.10;3.80;;;22.20;98.10;;;;;;5116201;28;20427;-58
2022/10/04 13:51:46;;;;;;;9.40;4.53;;;22.00;99.90;;;;;;5114506;28;20485;-55
2022/10/04 13:57:20;;;;;;;9.50;4.87;;;21.00;99.90;;;;;;5116240;28;20405;-56
2022/10/04 13:59:52;;;;;;;6.23;4.40;;;20.80;99.90;;;;;;5113604;28;20469;-55
2022/10/04 14:03:07;;;;;;;6.10;3.70;;;20.70;99.90;;;;;;5115755;28;20466;-55
2022/10/04 14:06:11;;;;;;;4.97;4.07;;;20.60;99.90;;;;;;5033142;28;20437;-56